Cleveland, Ohio
Traffic Map
Current Weather Conditions
Cleveland, Ohio
Clear
Clear
11°
Feels Like: 11°
Wind Chill: 11° Ceiling: Unl
Heat Index: 11° Visibility: 10mi
Dew Point: Wind: 13mph
Humidity: 83% Direction: 340° (NNW)
Pressure: 30.19in Gusts: 0mph
Raw Report DataKBKL 231153Z 34011KT 10SM CLR 11/08 A3019 RMK AO2 SLP224 T01060078 10117 20106 50000
Traffic Incident Summary
Active as of:
Severity:
Category:
InformationThere was an issue retrieving the traffic information for this location. Please try a different location or try again shortly.
Advertisements
Track Severe Weather on mobile